Terminal Aerodrome Forecast
Issued by NWS Blacksburg, VA

Current Version | Previous Version | Graphics & Text | Print | Product List | Glossary On
Versions: 1 2 3 4 5 6 7 8 9 10 11 12 13 14 15 16 17 18 19 20 21 22 23 24
000
FTUS41 KRNK 181720
TAFBLF
TAF
KBLF 181720Z 1818/1918 26008KT P6SM SCT200
     FM182100 26007KT P6SM VCSH BKN070
     FM190400 27006KT P6SM VCSH OVC015
     FM190600 27006KT 3SM BR OVC015
     FM190800 28003KT 3SM BR OVC008
     FM191200 29006KT P6SM OVC008
     FM191300 28009KT P6SM OVC015=

USA.gov is the U.S. government's official web portal to all federal, state and local government web resources and services.